EmailTwitter


Observations de surface / Québec / CYUL (71627)

Régions: Québec | Canada | États-Unis | Europe | France | UK | Ailleurs
Station
Affichage
Infos & localisation pour CYUL (71627) | Aide pour décoder les METARs

Observations prises le 2018-07-21 à 05H00 UTC à MONTREAL INTL A, QB (CYUL)

Etat du ciel: dégagé.

Température: 24.0 Celsius

Point de rosée: 14.0 Celsius

Humidité relative: 54%

Indice Humidex: 27.

Vents: Sud-est à 19 km/h ou 10 noeuds.

Pression au niveau moyen de la mer: 101.74 kilopascals.

Calage altimétrique: 101.73 kilopascals ou 30.04 pouces de mercure.

Visibilité horizontale: 15.00 milles terrestres ou 24.00 kilomètres.

Observation METAR:

CYUL 210500Z 14010KT 15SM SKC 24/14 A3004 RMK SLP174 DENSITY ALT 1100FT=